createdAt,value
2023-04-25T00:00:42.734Z,8.78
2023-04-25T00:01:44.685Z,8.79
2023-04-25T00:02:47.793Z,8.78
2023-04-25T00:03:50.486Z,8.80
2023-04-25T00:04:53.558Z,8.82
2023-04-25T00:05:58.371Z,8.83
2023-04-25T00:07:02.786Z,8.86
2023-04-25T00:08:05.479Z,8.87
2023-04-25T00:09:11.413Z,8.90
2023-04-25T00:10:13.369Z,8.92
2023-04-25T00:11:15.169Z,8.95
2023-04-25T00:12:17.680Z,8.95
2023-04-25T00:13:20.694Z,8.96
2023-04-25T00:14:22.993Z,8.98
2023-04-25T00:15:25.848Z,8.97
2023-04-25T00:16:28.180Z,8.97
2023-04-25T00:17:30.092Z,8.97
2023-04-25T00:18:34.409Z,8.98
2023-04-25T00:19:36.323Z,8.99
2023-04-25T00:20:38.332Z,8.97
2023-04-25T00:21:41.811Z,8.97
2023-04-25T00:22:43.628Z,8.99
2023-04-25T00:23:47.106Z,8.97
2023-04-25T00:24:48.962Z,8.98
2023-04-25T00:25:51.317Z,8.97
2023-04-25T00:26:53.299Z,8.99
2023-04-25T00:27:55.055Z,8.99
2023-04-25T00:28:57.043Z,8.99
2023-04-25T00:29:58.863Z,9.02
2023-04-25T00:31:00.814Z,9.00
2023-04-25T00:32:03.232Z,9.00
2023-04-25T00:33:05.577Z,9.01
2023-04-25T00:34:08.034Z,9.01
2023-04-25T00:35:10.505Z,9.02
2023-04-25T00:36:12.590Z,9.05
2023-04-25T00:37:14.486Z,9.07
2023-04-25T00:38:16.316Z,9.08
2023-04-25T00:39:18.206Z,9.10
2023-04-25T00:40:20.093Z,9.11
2023-04-25T00:41:22.029Z,9.10
2023-04-25T00:42:23.888Z,9.09
2023-04-25T00:43:28.796Z,9.06
2023-04-25T00:44:31.344Z,9.06
2023-04-25T00:45:33.963Z,9.05
2023-04-25T00:46:36.855Z,9.05
2023-04-25T00:47:38.831Z,9.04
2023-04-25T00:48:41.072Z,9.01
2023-04-25T00:49:42.977Z,9.01
2023-04-25T00:50:49.805Z,9.01
2023-04-25T00:51:51.740Z,8.99
2023-04-25T00:52:53.752Z,8.97
2023-04-25T00:53:55.770Z,8.97
2023-04-25T00:54:57.695Z,8.96
2023-04-25T00:55:59.710Z,8.98
2023-04-25T00:57:02.365Z,9.02
2023-04-25T00:58:04.271Z,9.02
2023-04-25T00:59:06.187Z,9.04
2023-04-25T01:00:08.536Z,9.01
2023-04-25T01:01:11.443Z,9.01
2023-04-25T01:02:13.748Z,8.96
2023-04-25T01:03:18.704Z,8.96
2023-04-25T01:04:21.788Z,8.94
2023-04-25T01:05:23.830Z,8.96
2023-04-25T01:06:25.843Z,8.97
2023-04-25T01:07:27.658Z,9.00
2023-04-25T01:08:29.523Z,9.00
2023-04-25T01:09:32.277Z,9.00
2023-04-25T01:10:34.135Z,8.99
2023-04-25T01:11:36.032Z,8.98
2023-04-25T01:12:38.321Z,8.98
2023-04-25T01:13:40.191Z,8.97
2023-04-25T01:14:42.169Z,8.94
2023-04-25T01:15:44.087Z,8.90
2023-04-25T01:16:46.220Z,8.90
2023-04-25T01:17:48.385Z,8.90
2023-04-25T01:18:51.476Z,8.93
2023-04-25T01:19:53.389Z,8.96
2023-04-25T01:20:55.653Z,8.96
2023-04-25T01:21:57.930Z,8.96
2023-04-25T01:22:59.873Z,8.94
2023-04-25T01:24:02.114Z,8.92
2023-04-25T01:25:04.522Z,8.85
2023-04-25T01:26:07.486Z,8.87
2023-04-25T01:27:09.889Z,8.89
2023-04-25T01:28:11.897Z,8.93
2023-04-25T01:29:13.785Z,8.96
2023-04-25T01:30:15.754Z,8.99
2023-04-25T01:31:18.301Z,9.00
2023-04-25T01:32:20.358Z,9.02
2023-04-25T01:33:22.615Z,9.07
2023-04-25T01:34:24.460Z,9.08
2023-04-25T01:35:26.437Z,9.08
2023-04-25T01:36:28.450Z,9.07
2023-04-25T01:37:30.326Z,9.05
2023-04-25T01:38:32.706Z,9.07
2023-04-25T01:39:34.594Z,9.08
2023-04-25T01:40:39.955Z,9.05
2023-04-25T01:41:41.931Z,9.00
2023-04-25T01:42:44.572Z,9.00
2023-04-25T01:43:46.476Z,9.00
2023-04-25T01:44:48.344Z,8.98
2023-04-25T01:45:50.715Z,8.97
2023-04-25T01:46:53.062Z,8.90
2023-04-25T01:47:54.980Z,8.87
2023-04-25T01:48:56.855Z,8.88
2023-04-25T01:49:58.721Z,8.89
2023-04-25T01:51:00.668Z,8.90
2023-04-25T01:52:02.477Z,8.92
2023-04-25T01:53:05.650Z,8.90
2023-04-25T01:54:07.516Z,8.90
2023-04-25T01:55:09.637Z,8.91
2023-04-25T01:56:11.533Z,8.92
2023-04-25T01:57:13.636Z,8.90
2023-04-25T01:58:15.640Z,8.92
2023-04-25T01:59:17.461Z,8.94
2023-04-25T02:00:19.526Z,8.99
2023-04-25T02:01:21.480Z,8.99
2023-04-25T02:02:23.585Z,8.97
2023-04-25T02:03:25.733Z,8.92
2023-04-25T02:04:27.947Z,8.93
2023-04-25T02:05:30.214Z,8.96
2023-04-25T02:06:32.167Z,8.97
2023-04-25T02:07:34.060Z,8.99
2023-04-25T02:08:36.034Z,8.99
2023-04-25T02:09:37.948Z,8.98
2023-04-25T02:10:39.885Z,9.00
2023-04-25T02:11:41.783Z,9.00
2023-04-25T02:12:43.626Z,9.00
2023-04-25T02:13:45.715Z,9.01
2023-04-25T02:14:47.469Z,9.01
2023-04-25T02:15:49.445Z,8.99
2023-04-25T02:16:52.563Z,8.94
2023-04-25T02:17:55.114Z,8.87
2023-04-25T02:18:57.025Z,8.84
2023-04-25T02:19:58.965Z,8.83
2023-04-25T02:21:01.122Z,8.82
2023-04-25T02:22:03.049Z,8.82
2023-04-25T02:23:05.075Z,8.82
2023-04-25T02:24:07.463Z,8.80
2023-04-25T02:25:10.373Z,8.81
2023-04-25T02:26:14.614Z,8.80
2023-04-25T02:27:16.656Z,8.82
2023-04-25T02:28:18.528Z,8.86
2023-04-25T02:29:20.557Z,8.88
2023-04-25T02:30:22.433Z,8.88
2023-04-25T02:31:24.484Z,8.86
2023-04-25T02:32:26.567Z,8.84
2023-04-25T02:33:28.538Z,8.79
2023-04-25T02:34:30.344Z,8.73
2023-04-25T02:35:32.243Z,8.71
2023-04-25T02:36:35.529Z,8.72
2023-04-25T02:37:40.540Z,8.73
2023-04-25T02:38:42.921Z,8.73
2023-04-25T02:39:44.774Z,8.73
2023-04-25T02:40:46.877Z,8.73
2023-04-25T02:41:48.859Z,8.66
2023-04-25T02:42:50.759Z,8.58
2023-04-25T02:43:52.915Z,8.53
2023-04-25T02:44:54.994Z,8.43
2023-04-25T02:45:56.882Z,8.35
2023-04-25T02:46:58.698Z,8.38
2023-04-25T02:48:00.681Z,8.37
2023-04-25T02:49:02.590Z,8.23
2023-04-25T02:50:04.816Z,8.13
2023-04-25T02:51:06.705Z,8.08
2023-04-25T02:52:08.682Z,8.09
2023-04-25T02:53:10.536Z,8.08
2023-04-25T02:54:12.379Z,8.11
2023-04-25T02:55:14.907Z,8.17
2023-04-25T02:56:16.953Z,8.20
2023-04-25T02:57:19.088Z,8.20
2023-04-25T02:58:20.967Z,8.20
2023-04-25T02:59:22.829Z,8.24
2023-04-25T03:00:24.754Z,8.24
2023-04-25T03:01:26.658Z,8.28
2023-04-25T03:02:28.593Z,8.32
2023-04-25T03:03:30.599Z,8.37
2023-04-25T03:04:33.024Z,8.41
2023-04-25T03:05:35.023Z,8.40
2023-04-25T03:06:37.103Z,8.29
2023-04-25T03:07:40.649Z,8.19
2023-04-25T03:08:42.638Z,8.14
2023-04-25T03:09:44.532Z,8.14
2023-04-25T03:10:47.042Z,8.15
2023-04-25T03:11:48.855Z,8.18
2023-04-25T03:12:50.800Z,8.15
2023-04-25T03:13:52.836Z,8.11
2023-04-25T03:14:55.030Z,8.04
2023-04-25T03:15:56.936Z,8.07
2023-04-25T03:16:58.886Z,8.07
2023-04-25T03:18:00.785Z,8.07
2023-04-25T03:19:03.295Z,8.08
2023-04-25T03:20:05.495Z,8.05
2023-04-25T03:21:07.401Z,8.09
2023-04-25T03:22:09.278Z,8.12
2023-04-25T03:23:11.219Z,8.17
2023-04-25T03:24:13.368Z,8.21
2023-04-25T03:25:15.339Z,8.25
2023-04-25T03:26:17.206Z,8.27
2023-04-25T03:27:19.076Z,8.28
2023-04-25T03:28:21.409Z,8.26
2023-04-25T03:29:25.882Z,8.23
2023-04-25T03:30:27.694Z,8.25
2023-04-25T03:31:29.735Z,8.21
2023-04-25T03:32:31.760Z,8.20
2023-04-25T03:33:33.574Z,8.19
2023-04-25T03:34:35.432Z,8.19
2023-04-25T03:35:37.250Z,8.17
2023-04-25T03:36:40.971Z,8.13
2023-04-25T03:37:46.813Z,8.13
2023-04-25T03:38:49.623Z,8.15
2023-04-25T03:39:51.587Z,8.12
2023-04-25T03:40:53.453Z,8.06
2023-04-25T03:41:55.275Z,8.06
2023-04-25T03:42:57.369Z,8.06
2023-04-25T03:43:59.231Z,8.09
2023-04-25T03:45:01.115Z,8.13
2023-04-25T03:46:03.059Z,8.17
2023-04-25T03:47:04.932Z,8.16
2023-04-25T03:48:06.872Z,8.08
2023-04-25T03:49:08.686Z,7.98
2023-04-25T03:50:10.667Z,7.98
2023-04-25T03:51:12.507Z,7.99
2023-04-25T03:52:14.351Z,8.00
2023-04-25T03:53:16.206Z,8.01
2023-04-25T03:54:18.041Z,8.03
2023-04-25T03:55:19.944Z,8.05
2023-04-25T03:56:22.148Z,8.08
2023-04-25T03:57:24.003Z,8.09
2023-04-25T03:58:26.073Z,8.11
2023-04-25T03:59:27.960Z,8.10
2023-04-25T04:00:29.835Z,8.08
2023-04-25T04:01:31.792Z,8.08
2023-04-25T04:02:35.544Z,8.07
2023-04-25T04:03:38.244Z,8.08
2023-04-25T04:04:41.121Z,8.11
2023-04-25T04:05:43.097Z,8.12
2023-04-25T04:06:45.018Z,8.08
2023-04-25T04:07:46.886Z,8.04
2023-04-25T04:08:48.771Z,7.99
2023-04-25T04:09:50.623Z,8.00
2023-04-25T04:10:52.488Z,8.02
2023-04-25T04:11:54.478Z,8.04
2023-04-25T04:12:56.350Z,8.06
2023-04-25T04:13:58.224Z,8.00
2023-04-25T04:15:00.158Z,7.97
2023-04-25T04:16:02.099Z,7.91
2023-04-25T04:17:03.969Z,7.93
2023-04-25T04:18:06.034Z,7.94
2023-04-25T04:19:08.284Z,7.94
2023-04-25T04:20:10.579Z,7.91
2023-04-25T04:21:12.390Z,7.87
2023-04-25T04:22:14.214Z,7.80
2023-04-25T04:23:16.062Z,7.77
2023-04-25T04:24:18.221Z,7.76
2023-04-25T04:25:20.590Z,7.76
2023-04-25T04:26:25.558Z,7.71
2023-04-25T04:27:27.575Z,7.68
2023-04-25T04:28:29.424Z,7.69
2023-04-25T04:29:31.352Z,7.77
2023-04-25T04:30:34.493Z,7.84
2023-04-25T04:31:37.245Z,7.86
2023-04-25T04:32:39.755Z,7.87
2023-04-25T04:33:41.680Z,7.89
2023-04-25T04:34:43.644Z,7.85
2023-04-25T04:35:45.623Z,7.82
2023-04-25T04:36:48.138Z,7.81
2023-04-25T04:37:49.972Z,7.84
2023-04-25T04:38:51.799Z,7.89
2023-04-25T04:39:53.671Z,7.92
2023-04-25T04:40:55.574Z,7.96
2023-04-25T04:41:57.508Z,7.99
2023-04-25T04:42:59.509Z,7.98
2023-04-25T04:44:02.307Z,7.99
2023-04-25T04:45:05.329Z,8.02
2023-04-25T04:46:07.303Z,8.07
2023-04-25T04:47:09.225Z,8.13
2023-04-25T04:48:13.205Z,8.16
2023-04-25T04:49:15.200Z,8.15
2023-04-25T04:50:17.577Z,8.18
2023-04-25T04:51:19.463Z,8.20
2023-04-25T04:52:21.363Z,8.22
2023-04-25T04:53:23.233Z,8.26
2023-04-25T04:54:25.107Z,8.30
2023-04-25T04:55:26.958Z,8.33
2023-04-25T04:56:29.454Z,8.31
2023-04-25T04:57:32.405Z,8.26
2023-04-25T04:58:34.501Z,8.28
2023-04-25T04:59:37.061Z,8.31
2023-04-25T05:00:39.526Z,8.32
2023-04-25T05:01:41.969Z,8.33
2023-04-25T05:02:44.070Z,8.28
2023-04-25T05:03:46.267Z,8.28
2023-04-25T05:04:48.548Z,8.27
2023-04-25T05:05:50.520Z,8.31
2023-04-25T05:06:52.339Z,8.32
2023-04-25T05:07:54.261Z,8.32
2023-04-25T05:08:56.312Z,8.33
2023-04-25T05:09:58.202Z,8.34
2023-04-25T05:11:00.034Z,8.33
2023-04-25T05:12:02.386Z,8.32
2023-04-25T05:13:04.277Z,8.32
2023-04-25T05:14:06.290Z,8.32
2023-04-25T05:15:08.250Z,8.26
2023-04-25T05:16:10.150Z,8.25
2023-04-25T05:17:12.038Z,8.23
2023-04-25T05:18:13.965Z,8.15
2023-04-25T05:19:15.990Z,8.04
2023-04-25T05:20:20.680Z,7.97
2023-04-25T05:21:22.794Z,7.97
2023-04-25T05:22:24.759Z,7.99
2023-04-25T05:23:26.819Z,8.02
2023-04-25T05:24:28.725Z,8.07
2023-04-25T05:25:30.666Z,8.08
2023-04-25T05:26:32.676Z,8.10
2023-04-25T05:27:34.695Z,8.15
2023-04-25T05:28:36.703Z,8.21
2023-04-25T05:29:38.633Z,8.25
2023-04-25T05:30:40.815Z,8.28
2023-04-25T05:31:42.673Z,8.31
2023-04-25T05:32:44.600Z,8.27
2023-04-25T05:33:46.620Z,8.28
2023-04-25T05:34:49.643Z,8.32
2023-04-25T05:35:51.643Z,8.34
2023-04-25T05:36:53.478Z,8.35
2023-04-25T05:37:55.309Z,8.32
2023-04-25T05:38:57.195Z,8.24
2023-04-25T05:39:59.020Z,8.18
2023-04-25T05:41:00.917Z,8.17
2023-04-25T05:42:03.224Z,8.22
2023-04-25T05:43:05.182Z,8.26
2023-04-25T05:44:07.003Z,8.33
2023-04-25T05:45:08.997Z,8.36
2023-04-25T05:46:11.021Z,8.39
2023-04-25T05:47:12.882Z,8.43
2023-04-25T05:48:14.762Z,8.49
2023-04-25T05:49:18.228Z,8.51
2023-04-25T05:50:21.520Z,8.52
2023-04-25T05:51:23.497Z,8.49
2023-04-25T05:52:25.518Z,8.50
2023-04-25T05:53:27.372Z,8.53
2023-04-25T05:54:29.213Z,8.55
2023-04-25T05:55:31.300Z,8.50
2023-04-25T05:56:33.144Z,8.48
2023-04-25T05:57:35.023Z,8.49
2023-04-25T05:58:36.938Z,8.47
2023-04-25T05:59:38.853Z,8.41
2023-04-25T06:00:42.802Z,8.42
2023-04-25T06:01:44.624Z,8.45
2023-04-25T06:02:46.688Z,8.51
2023-04-25T06:03:49.078Z,8.56
2023-04-25T06:04:52.450Z,8.63
2023-04-25T06:05:54.512Z,8.68
2023-04-25T06:06:56.585Z,8.70
2023-04-25T06:07:58.483Z,8.72
2023-04-25T06:09:00.390Z,8.74
2023-04-25T06:10:02.280Z,8.75
2023-04-25T06:11:04.133Z,8.76
2023-04-25T06:12:06.430Z,8.78
2023-04-25T06:13:08.559Z,8.78
2023-04-25T06:14:10.402Z,8.77
2023-04-25T06:15:24.510Z,8.78
2023-04-25T06:16:30.258Z,8.81
2023-04-25T06:17:32.166Z,8.89
2023-04-25T06:18:34.374Z,8.96
2023-04-25T06:19:37.160Z,9.01
2023-04-25T06:20:39.073Z,8.99
2023-04-25T06:21:41.617Z,9.04
2023-04-25T06:22:43.440Z,9.08
2023-04-25T06:23:45.285Z,9.07
2023-04-25T06:24:47.530Z,9.05
2023-04-25T06:25:49.367Z,8.91
2023-04-25T06:26:51.402Z,8.87
2023-04-25T06:27:53.238Z,8.87
2023-04-25T06:28:55.223Z,8.88
2023-04-25T06:29:57.075Z,8.82
2023-04-25T06:30:58.949Z,8.83
2023-04-25T06:32:00.838Z,8.78
2023-04-25T06:33:02.724Z,8.79
2023-04-25T06:34:04.866Z,8.80
2023-04-25T06:35:07.018Z,8.83
2023-04-25T06:36:08.945Z,8.90
2023-04-25T06:37:10.937Z,8.93
2023-04-25T06:38:12.746Z,8.98
2023-04-25T06:39:14.715Z,9.01
2023-04-25T06:40:18.588Z,9.04
2023-04-25T06:41:21.298Z,9.08
2023-04-25T06:42:23.104Z,9.11
2023-04-25T06:43:24.916Z,9.11
2023-04-25T06:44:27.603Z,9.14
2023-04-25T06:45:29.438Z,9.19
2023-04-25T06:46:31.337Z,9.26
2023-04-25T06:47:33.259Z,9.28
2023-04-25T06:48:35.176Z,9.28
2023-04-25T06:49:37.102Z,9.31
2023-04-25T06:50:38.947Z,9.34
2023-04-25T06:51:41.960Z,9.35
2023-04-25T06:52:43.776Z,9.39
2023-04-25T06:53:45.657Z,9.43
2023-04-25T06:54:47.615Z,9.44
2023-04-25T06:55:49.501Z,9.44
2023-04-25T06:56:51.469Z,9.43
2023-04-25T06:57:53.304Z,9.46
2023-04-25T06:58:55.126Z,9.50
2023-04-25T06:59:57.337Z,9.55
2023-04-25T07:00:59.574Z,9.59
2023-04-25T07:02:01.550Z,9.63
2023-04-25T07:03:03.612Z,9.66
2023-04-25T07:04:06.328Z,9.68
2023-04-25T07:05:08.711Z,9.70
2023-04-25T07:06:10.853Z,9.72
2023-04-25T07:07:12.751Z,9.70
2023-04-25T07:08:14.646Z,9.72
2023-04-25T07:09:16.610Z,9.74
2023-04-25T07:10:18.490Z,9.75
2023-04-25T07:11:20.828Z,9.73
2023-04-25T07:12:22.818Z,9.72
2023-04-25T07:13:24.770Z,9.68
2023-04-25T07:14:26.617Z,9.68
2023-04-25T07:15:28.546Z,9.70
2023-04-25T07:16:30.631Z,9.71
2023-04-25T07:17:32.935Z,9.69
2023-04-25T07:18:34.840Z,9.69
2023-04-25T07:19:37.965Z,9.69
2023-04-25T07:20:39.943Z,9.70
2023-04-25T07:21:41.806Z,9.68
2023-04-25T07:22:43.639Z,9.71
2023-04-25T07:23:45.651Z,9.72
2023-04-25T07:24:49.941Z,9.72
2023-04-25T07:25:51.986Z,9.73
2023-04-25T07:26:53.900Z,9.76
2023-04-25T07:27:55.834Z,9.80
2023-04-25T07:28:57.776Z,9.83
2023-04-25T07:29:59.732Z,9.81
2023-04-25T07:31:01.646Z,9.83
2023-04-25T07:32:03.642Z,9.86
2023-04-25T07:33:06.018Z,9.85
2023-04-25T07:34:07.961Z,9.86
2023-04-25T07:35:09.931Z,9.87
2023-04-25T07:36:11.851Z,9.87
2023-04-25T07:37:13.824Z,9.87
2023-04-25T07:38:15.756Z,9.92
2023-04-25T07:39:17.600Z,9.92
2023-04-25T07:40:19.492Z,9.89
2023-04-25T07:41:21.363Z,9.88
2023-04-25T07:42:23.217Z,9.92
2023-04-25T07:43:25.107Z,9.95
2023-04-25T07:44:27.179Z,10.00
2023-04-25T07:45:29.040Z,10.06
2023-04-25T07:46:31.050Z,10.07
2023-04-25T07:47:32.970Z,10.08
2023-04-25T07:48:34.888Z,10.12
2023-04-25T07:49:37.100Z,10.17
2023-04-25T07:50:38.997Z,10.23
2023-04-25T07:51:40.961Z,10.25
2023-04-25T07:52:42.896Z,10.25
2023-04-25T07:53:44.998Z,10.24
2023-04-25T07:54:47.148Z,10.20
2023-04-25T07:55:49.125Z,10.24
2023-04-25T07:56:53.336Z,10.28
2023-04-25T07:57:55.686Z,10.28
2023-04-25T07:58:57.678Z,10.21
2023-04-25T07:59:59.571Z,10.22
2023-04-25T08:01:01.419Z,10.24
2023-04-25T08:02:03.918Z,10.24
2023-04-25T08:03:05.987Z,10.28
2023-04-25T08:04:08.136Z,10.32
2023-04-25T08:05:13.238Z,10.37
2023-04-25T08:06:15.439Z,10.41
2023-04-25T08:07:17.398Z,10.43
2023-04-25T08:08:19.291Z,10.44
2023-04-25T08:09:21.670Z,10.47
2023-04-25T08:10:24.416Z,10.45
2023-04-25T08:11:26.578Z,10.50
2023-04-25T08:12:28.369Z,10.51
2023-04-25T08:13:30.324Z,10.49
2023-04-25T08:14:37.045Z,10.51
2023-04-25T08:15:39.184Z,10.53
2023-04-25T08:16:41.274Z,10.51
2023-04-25T08:17:45.253Z,10.52
2023-04-25T08:18:47.231Z,10.53
2023-04-25T08:19:49.205Z,10.51
2023-04-25T08:20:51.907Z,10.52
2023-04-25T08:21:53.744Z,10.55
2023-04-25T08:22:55.751Z,10.58
2023-04-25T08:23:58.762Z,10.60
2023-04-25T08:25:00.933Z,10.61
2023-04-25T08:26:03.685Z,10.59
2023-04-25T08:27:05.671Z,10.60
2023-04-25T08:28:07.604Z,10.64
2023-04-25T08:29:09.492Z,10.67
2023-04-25T08:30:11.503Z,10.60
2023-04-25T08:31:13.612Z,10.63
2023-04-25T08:32:15.459Z,10.70
2023-04-25T08:33:18.005Z,10.69
2023-04-25T08:34:20.283Z,10.64
2023-04-25T08:35:22.303Z,10.63
2023-04-25T08:36:37.712Z,10.66
2023-04-25T08:37:41.596Z,10.63
2023-04-25T08:38:43.484Z,10.61
2023-04-25T08:39:46.416Z,10.61
2023-04-25T08:40:51.489Z,10.61
2023-04-25T08:41:54.179Z,10.56
2023-04-25T08:42:57.000Z,10.55
2023-04-25T08:44:01.522Z,10.58
2023-04-25T08:45:07.073Z,10.58
2023-04-25T08:46:09.396Z,10.52
2023-04-25T08:47:11.301Z,10.50
2023-04-25T08:48:14.712Z,10.52
2023-04-25T08:49:18.316Z,10.55
2023-04-25T08:50:22.784Z,10.65
2023-04-25T08:51:29.324Z,10.77
2023-04-25T08:52:33.862Z,10.89
2023-04-25T08:53:36.502Z,10.99
2023-04-25T08:54:40.357Z,11.04
2023-04-25T08:55:43.959Z,11.15
2023-04-25T08:56:47.006Z,11.19
2023-04-25T08:57:49.070Z,11.25
2023-04-25T08:58:53.799Z,11.30
2023-04-25T08:59:56.816Z,11.33
2023-04-25T09:00:58.761Z,11.34
2023-04-25T09:02:02.048Z,11.36
2023-04-25T09:03:04.804Z,11.42
2023-04-25T09:04:06.967Z,11.48
2023-04-25T09:05:11.413Z,11.52
2023-04-25T09:06:13.327Z,11.61
2023-04-25T09:07:19.778Z,11.70
2023-04-25T09:08:21.640Z,11.71
2023-04-25T09:09:23.523Z,11.69
2023-04-25T09:10:25.644Z,11.76
2023-04-25T09:11:27.547Z,11.81
2023-04-25T09:12:30.300Z,11.89
2023-04-25T09:13:32.198Z,11.93
2023-04-25T09:14:34.036Z,11.91
2023-04-25T09:15:49.572Z,11.90
2023-04-25T09:16:57.639Z,11.91
2023-04-25T09:18:00.498Z,11.87
2023-04-25T09:19:02.482Z,11.82
2023-04-25T09:20:08.715Z,11.77
2023-04-25T09:21:14.903Z,11.74
2023-04-25T09:22:19.590Z,11.77
2023-04-25T09:23:25.186Z,11.76
2023-04-25T09:24:40.721Z,11.75
2023-04-25T09:25:44.708Z,11.73
2023-04-25T09:26:46.751Z,11.75
2023-04-25T09:27:55.591Z,11.78
2023-04-25T09:29:10.714Z,11.79
2023-04-25T09:30:12.991Z,11.78
2023-04-25T09:31:23.128Z,11.79
2023-04-25T09:32:25.916Z,11.79
2023-04-25T09:33:34.711Z,11.80
2023-04-25T09:34:41.429Z,11.78
2023-04-25T09:35:54.143Z,11.79
2023-04-25T09:36:56.704Z,11.75
2023-04-25T09:37:58.609Z,11.69
2023-04-25T09:39:02.408Z,11.62
2023-04-25T09:40:07.138Z,11.58
2023-04-25T09:41:09.878Z,11.54
2023-04-25T09:42:11.932Z,11.57
2023-04-25T09:43:20.997Z,11.60
2023-04-25T09:44:26.017Z,11.67
2023-04-25T09:45:31.450Z,11.70
2023-04-25T09:46:39.155Z,11.69
2023-04-25T09:47:41.485Z,11.69
2023-04-25T09:48:49.216Z,11.69
2023-04-25T09:49:51.882Z,11.68
2023-04-25T09:51:07.113Z,11.75
2023-04-25T09:52:09.363Z,11.79
2023-04-25T09:53:11.304Z,11.90
2023-04-25T09:54:13.156Z,12.01
2023-04-25T09:55:15.117Z,12.08
2023-04-25T09:56:17.628Z,12.14
2023-04-25T09:57:20.477Z,12.24
2023-04-25T09:58:22.993Z,12.44
2023-04-25T09:59:24.972Z,12.60
2023-04-25T10:00:26.859Z,12.73
2023-04-25T10:01:29.117Z,12.80
2023-04-25T10:02:32.390Z,12.88
2023-04-25T10:03:36.286Z,12.95
2023-04-25T10:04:38.989Z,13.11
2023-04-25T10:05:41.794Z,13.30
2023-04-25T10:06:44.653Z,13.47
2023-04-25T10:07:46.690Z,13.58
2023-04-25T10:08:51.298Z,13.60
2023-04-25T10:09:56.784Z,13.77
2023-04-25T10:11:00.771Z,13.93
2023-04-25T10:12:04.878Z,14.01
2023-04-25T10:13:07.565Z,14.16
2023-04-25T10:14:10.213Z,14.34
2023-04-25T10:15:12.321Z,14.51
2023-04-25T10:16:14.356Z,14.65
2023-04-25T10:17:16.882Z,14.81
2023-04-25T10:18:21.263Z,14.93
2023-04-25T10:19:23.419Z,15.08
2023-04-25T10:20:25.781Z,15.27
2023-04-25T10:21:29.537Z,15.39
2023-04-25T10:22:34.234Z,15.54
2023-04-25T10:23:37.530Z,15.62
2023-04-25T10:24:40.220Z,15.45
2023-04-25T10:25:42.937Z,15.25
2023-04-25T10:26:45.097Z,15.27
2023-04-25T10:27:47.184Z,15.27
2023-04-25T10:28:56.362Z,15.33
2023-04-25T10:30:12.675Z,15.52
2023-04-25T10:31:17.805Z,15.63
2023-04-25T10:32:19.801Z,15.59
2023-04-25T10:33:30.397Z,15.65
2023-04-25T10:34:42.517Z,15.87
2023-04-25T10:35:46.381Z,16.09
2023-04-25T10:36:54.878Z,16.28
2023-04-25T10:38:06.929Z,16.39
2023-04-25T10:39:10.529Z,16.22
2023-04-25T10:40:12.696Z,16.12
2023-04-25T10:41:15.173Z,16.01
2023-04-25T10:42:17.113Z,16.07
2023-04-25T10:43:34.986Z,16.01
2023-04-25T10:44:38.488Z,15.88
2023-04-25T10:45:53.716Z,15.80
2023-04-25T10:46:59.706Z,15.68
2023-04-25T10:48:02.169Z,15.63
2023-04-25T10:49:04.556Z,15.58
2023-04-25T10:50:07.474Z,15.49
2023-04-25T10:51:10.240Z,15.39
2023-04-25T10:52:13.408Z,15.34
2023-04-25T10:53:18.320Z,15.29
2023-04-25T10:54:21.399Z,15.30
2023-04-25T10:55:23.469Z,15.32
2023-04-25T10:56:32.973Z,15.27
2023-04-25T10:57:42.376Z,15.20
2023-04-25T10:58:47.241Z,15.14
2023-04-25T10:59:50.223Z,15.00
2023-04-25T11:00:57.528Z,14.91
2023-04-25T11:01:59.875Z,14.80
2023-04-25T11:03:03.962Z,14.72
2023-04-25T11:04:06.691Z,14.56
2023-04-25T11:05:09.131Z,14.32
2023-04-25T11:06:24.562Z,13.88
2023-04-25T11:07:29.165Z,13.36
2023-04-25T11:08:49.230Z,13.26
2023-04-25T11:09:51.443Z,12.96
2023-04-25T11:10:53.466Z,12.84
2023-04-25T11:11:59.574Z,12.71
2023-04-25T11:13:01.554Z,12.60
2023-04-25T11:14:03.960Z,12.57
2023-04-25T11:15:07.107Z,12.44
2023-04-25T11:16:12.647Z,12.41
2023-04-25T11:17:15.175Z,12.35
2023-04-25T11:18:18.583Z,12.21
2023-04-25T11:19:21.528Z,12.19
2023-04-25T11:20:23.997Z,12.19
2023-04-25T11:21:29.528Z,12.16
2023-04-25T11:22:31.475Z,12.13
2023-04-25T11:23:33.414Z,12.16
2023-04-25T11:24:36.228Z,12.18
2023-04-25T11:25:38.874Z,12.01
2023-04-25T11:26:44.837Z,11.94
2023-04-25T11:27:52.738Z,11.90
2023-04-25T11:28:58.415Z,11.90
2023-04-25T11:30:00.724Z,11.98
2023-04-25T11:31:03.856Z,11.98
2023-04-25T11:32:05.922Z,12.05
2023-04-25T11:33:07.842Z,12.08
2023-04-25T11:34:09.671Z,12.17
2023-04-25T11:35:11.585Z,12.17
2023-04-25T11:36:13.514Z,12.16
2023-04-25T11:37:15.473Z,11.87
2023-04-25T11:38:17.362Z,11.84
2023-04-25T11:39:19.691Z,11.86
2023-04-25T11:40:21.487Z,11.77
2023-04-25T11:41:23.583Z,11.84
2023-04-25T11:42:25.636Z,11.87
2023-04-25T11:43:27.532Z,11.97
2023-04-25T11:44:29.508Z,12.06
2023-04-25T11:45:32.517Z,12.14
2023-04-25T11:46:37.274Z,12.13
2023-04-25T11:47:39.296Z,12.12
2023-04-25T11:48:44.867Z,12.19
2023-04-25T11:49:46.851Z,12.19
2023-04-25T11:50:48.744Z,12.15
2023-04-25T11:51:50.827Z,12.17
2023-04-25T11:52:53.332Z,11.86
2023-04-25T11:53:55.142Z,11.87
2023-04-25T11:54:57.552Z,11.95
2023-04-25T11:55:59.398Z,12.13
2023-04-25T11:57:03.096Z,12.47
2023-04-25T11:58:05.925Z,12.68
2023-04-25T11:59:08.217Z,12.97
2023-04-25T12:00:11.575Z,13.28
2023-04-25T12:01:13.375Z,13.34
2023-04-25T12:02:26.273Z,13.36
2023-04-25T12:03:32.528Z,13.62
2023-04-25T12:04:34.751Z,13.89
2023-04-25T12:05:37.361Z,14.00
2023-04-25T12:06:42.314Z,14.11
2023-04-25T12:07:44.320Z,14.14
2023-04-25T12:09:09.280Z,14.25
2023-04-25T12:10:20.485Z,14.34
2023-04-25T12:11:23.014Z,14.27
2023-04-25T12:12:29.094Z,14.14
2023-04-25T12:13:33.007Z,14.39
2023-04-25T12:14:36.190Z,14.61
2023-04-25T12:15:42.195Z,14.85
2023-04-25T12:16:47.722Z,15.05
2023-04-25T12:17:50.688Z,15.19
2023-04-25T12:18:54.385Z,15.07
2023-04-25T12:19:56.242Z,14.98
2023-04-25T12:20:59.392Z,14.94
2023-04-25T12:22:02.190Z,14.84
2023-04-25T12:23:08.652Z,14.76
2023-04-25T12:24:24.703Z,14.47
2023-04-25T12:25:37.036Z,14.38
2023-04-25T12:26:49.137Z,14.40
2023-04-25T12:27:51.312Z,14.36
2023-04-25T12:28:54.085Z,14.17
2023-04-25T12:29:57.038Z,14.11
2023-04-25T12:31:00.891Z,13.99
2023-04-25T12:32:03.160Z,13.88
2023-04-25T12:33:05.075Z,13.83
2023-04-25T12:34:07.695Z,13.81
2023-04-25T12:35:09.703Z,13.77
2023-04-25T12:36:13.525Z,13.77
2023-04-25T12:37:15.684Z,13.75
2023-04-25T12:38:27.548Z,13.74
2023-04-25T12:39:29.419Z,13.76
2023-04-25T12:40:31.293Z,13.78
2023-04-25T12:41:33.246Z,13.76
2023-04-25T12:42:35.076Z,13.71
2023-04-25T12:43:36.957Z,13.64
2023-04-25T12:44:39.266Z,13.60
2023-04-25T12:45:41.396Z,13.60
2023-04-25T12:46:43.389Z,13.60
2023-04-25T12:47:45.397Z,13.61
2023-04-25T12:48:47.302Z,13.61
2023-04-25T12:49:50.115Z,13.65
2023-04-25T12:50:53.185Z,13.61
2023-04-25T12:51:55.398Z,13.70
2023-04-25T12:52:57.279Z,13.85
2023-04-25T12:53:59.094Z,14.08
2023-04-25T12:55:01.036Z,14.21
2023-04-25T12:56:02.987Z,14.59
2023-04-25T12:57:04.950Z,14.84
2023-04-25T12:58:06.848Z,15.18
2023-04-25T12:59:08.947Z,15.55
2023-04-25T13:00:11.890Z,15.80
2023-04-25T13:01:15.193Z,15.82
2023-04-25T13:02:17.162Z,15.78
2023-04-25T13:03:20.125Z,16.20
2023-04-25T13:04:23.168Z,16.62
2023-04-25T13:05:25.150Z,16.72
2023-04-25T13:06:27.554Z,17.04
2023-04-25T13:07:29.489Z,17.28
2023-04-25T13:08:31.386Z,17.53
2023-04-25T13:09:33.277Z,17.60
2023-04-25T13:10:35.350Z,17.45
2023-04-25T13:11:37.531Z,17.21
2023-04-25T13:12:39.413Z,17.24
2023-04-25T13:13:41.396Z,17.43
2023-04-25T13:14:43.235Z,17.19
2023-04-25T13:15:45.189Z,17.12
2023-04-25T13:16:47.142Z,17.18
2023-04-25T13:17:49.225Z,17.02
2023-04-25T13:18:51.167Z,16.74
2023-04-25T13:19:53.055Z,16.40
2023-04-25T13:20:55.180Z,16.31
2023-04-25T13:21:57.173Z,16.26
2023-04-25T13:23:00.281Z,15.91
2023-04-25T13:24:03.239Z,15.99
2023-04-25T13:25:05.476Z,16.34
2023-04-25T13:26:07.398Z,16.73
2023-04-25T13:27:09.317Z,17.00
2023-04-25T13:28:11.274Z,17.07
2023-04-25T13:29:13.088Z,16.90
2023-04-25T13:30:15.077Z,16.89
2023-04-25T13:31:16.939Z,16.83
2023-04-25T13:32:18.903Z,16.80
2023-04-25T13:33:21.463Z,16.88
2023-04-25T13:34:23.698Z,17.11
2023-04-25T13:35:25.885Z,17.23
2023-04-25T13:36:29.088Z,17.32
2023-04-25T13:37:31.809Z,17.59
2023-04-25T13:38:33.877Z,17.92
2023-04-25T13:39:35.699Z,18.02
2023-04-25T13:40:37.607Z,18.30
2023-04-25T13:41:39.447Z,18.51
2023-04-25T13:42:41.831Z,18.82
2023-04-25T13:43:43.772Z,18.91
2023-04-25T13:44:45.620Z,18.92
2023-04-25T13:45:47.667Z,18.99